createdAt,value
2022-12-24T00:00:31.486Z,1.25
2022-12-24T00:02:58.094Z,1.42
2022-12-24T00:05:24.523Z,1.58
2022-12-24T00:07:51.075Z,1.27
2022-12-24T00:10:17.712Z,2.03
2022-12-24T00:12:44.064Z,1.80
2022-12-24T00:15:10.639Z,1.23
2022-12-24T00:17:37.085Z,2.35
2022-12-24T00:20:04.799Z,1.25
2022-12-24T00:22:31.137Z,1.55
2022-12-24T00:24:57.488Z,1.10
2022-12-24T00:27:23.819Z,1.38
2022-12-24T00:29:50.178Z,1.20
2022-12-24T00:32:16.714Z,1.27
2022-12-24T00:34:43.041Z,1.27
2022-12-24T00:37:09.374Z,0.82
2022-12-24T00:39:35.791Z,1.10
2022-12-24T00:42:02.184Z,1.50
2022-12-24T00:44:28.505Z,1.27
2022-12-24T00:46:54.932Z,1.05
2022-12-24T00:49:21.317Z,1.30
2022-12-24T00:51:47.670Z,1.08
2022-12-24T00:54:14.623Z,1.20
2022-12-24T00:56:41.000Z,0.80
2022-12-24T00:59:07.372Z,0.85
2022-12-24T01:01:35.893Z,1.48
2022-12-24T01:04:20.834Z,1.45
2022-12-24T01:06:47.248Z,1.75
2022-12-24T01:09:13.533Z,1.02
2022-12-24T01:11:39.949Z,0.73
2022-12-24T01:14:06.342Z,1.00
2022-12-24T01:16:32.848Z,0.98
2022-12-24T01:18:59.314Z,1.67
2022-12-24T01:21:25.820Z,1.23
2022-12-24T01:23:52.780Z,1.10
2022-12-24T01:26:19.271Z,1.67
2022-12-24T01:28:45.765Z,0.80
2022-12-24T01:31:16.207Z,1.10
2022-12-24T01:33:42.977Z,1.23
2022-12-24T01:36:09.558Z,1.45
2022-12-24T01:38:36.060Z,1.20
2022-12-24T01:41:20.947Z,0.90
2022-12-24T01:43:47.344Z,1.63
2022-12-24T01:46:19.934Z,0.98
2022-12-24T01:48:49.509Z,1.25
2022-12-24T01:51:19.251Z,2.08
2022-12-24T01:53:47.668Z,0.98
2022-12-24T01:56:14.525Z,1.40
2022-12-24T01:58:43.395Z,0.93
2022-12-24T02:01:09.853Z,1.77
2022-12-24T02:03:36.559Z,1.23
2022-12-24T02:06:03.588Z,2.08
2022-12-24T02:08:40.075Z,1.58
2022-12-24T02:11:10.271Z,1.88
2022-12-24T02:13:36.590Z,1.70
2022-12-24T02:16:21.891Z,1.40
2022-12-24T02:18:50.939Z,1.15
2022-12-24T02:21:31.745Z,1.42
2022-12-24T02:24:06.955Z,1.60
2022-12-24T02:26:55.502Z,2.15
2022-12-24T02:29:24.956Z,1.10
2022-12-24T02:32:00.197Z,2.05
2022-12-24T02:34:44.766Z,1.95
2022-12-24T02:37:34.543Z,1.25
2022-12-24T02:40:15.759Z,2.15
2022-12-24T02:42:44.511Z,1.92
2022-12-24T02:45:13.232Z,1.73
2022-12-24T02:47:41.458Z,1.50
2022-12-24T02:50:08.682Z,1.42
2022-12-24T02:52:36.392Z,2.50
2022-12-24T02:55:05.114Z,1.52
2022-12-24T02:57:37.393Z,1.70
2022-12-24T03:00:08.758Z,1.15
2022-12-24T03:02:45.509Z,2.00
2022-12-24T03:05:27.343Z,1.65
2022-12-24T03:07:59.335Z,1.40
2022-12-24T03:12:57.728Z,1.83
2022-12-24T03:15:27.519Z,3.03
2022-12-24T03:17:55.843Z,1.75
2022-12-24T03:20:24.961Z,1.05
2022-12-24T03:22:51.377Z,1.90
2022-12-24T03:25:17.857Z,1.80
2022-12-24T03:27:44.632Z,2.00
2022-12-24T03:30:13.027Z,1.50
2022-12-24T03:32:39.471Z,1.98
2022-12-24T03:35:06.758Z,1.48
2022-12-24T03:37:33.260Z,1.10
2022-12-24T03:39:59.634Z,2.15
2022-12-24T03:42:26.052Z,1.13
2022-12-24T03:44:52.550Z,1.75
2022-12-24T03:47:19.057Z,1.23
2022-12-24T03:49:45.448Z,1.50
2022-12-24T03:52:11.812Z,1.55
2022-12-24T03:54:38.219Z,1.48
2022-12-24T03:57:04.676Z,0.85
2022-12-24T03:59:31.089Z,1.60
2022-12-24T04:01:57.688Z,1.00
2022-12-24T04:04:24.140Z,1.70
2022-12-24T04:06:50.632Z,1.52
2022-12-24T04:09:16.990Z,1.83
2022-12-24T04:11:43.409Z,1.15
2022-12-24T04:14:09.799Z,1.58
2022-12-24T04:16:36.238Z,1.45
2022-12-24T04:19:02.685Z,1.52
2022-12-24T04:21:29.184Z,1.60
2022-12-24T04:23:55.547Z,1.60
2022-12-24T04:26:22.009Z,1.40
2022-12-24T04:28:48.399Z,1.05
2022-12-24T04:31:15.998Z,1.20
2022-12-24T04:33:42.561Z,1.15
2022-12-24T04:36:11.052Z,0.90
2022-12-24T04:38:37.401Z,1.10
2022-12-24T04:41:24.757Z,1.65
2022-12-24T04:43:52.186Z,1.70
2022-12-24T04:46:20.167Z,1.55
2022-12-24T04:48:47.453Z,1.08
2022-12-24T04:51:14.224Z,1.15
2022-12-24T04:53:41.193Z,0.90
2022-12-24T04:56:08.998Z,1.10
2022-12-24T04:58:35.485Z,1.10
2022-12-24T05:01:05.505Z,1.73
2022-12-24T05:03:32.254Z,1.50
2022-12-24T05:06:02.835Z,1.75
2022-12-24T05:08:29.497Z,1.92
2022-12-24T05:10:56.935Z,2.08
2022-12-24T05:13:23.650Z,2.08
2022-12-24T05:15:51.491Z,1.70
2022-12-24T05:18:17.945Z,1.80
2022-12-24T05:20:44.438Z,1.92
2022-12-24T05:23:34.275Z,1.73
2022-12-24T05:26:19.317Z,1.40
2022-12-24T05:28:45.785Z,1.50
2022-12-24T05:31:12.241Z,1.73
2022-12-24T05:33:38.674Z,2.60
2022-12-24T05:36:05.383Z,1.42
2022-12-24T05:38:31.696Z,2.10
2022-12-24T05:40:57.990Z,1.50
2022-12-24T05:43:24.388Z,2.17
2022-12-24T05:45:50.697Z,2.13
2022-12-24T05:48:17.042Z,1.98
2022-12-24T05:50:43.369Z,1.60
2022-12-24T05:53:09.654Z,1.50
2022-12-24T05:55:35.937Z,1.73
2022-12-24T05:58:02.413Z,1.52
2022-12-24T06:00:28.861Z,1.50
2022-12-24T06:02:55.243Z,1.80
2022-12-24T06:05:21.667Z,1.33
2022-12-24T06:07:48.017Z,1.20
2022-12-24T06:10:14.318Z,1.40
2022-12-24T06:12:40.650Z,1.40
2022-12-24T06:15:07.293Z,0.82
2022-12-24T06:17:33.621Z,1.10
2022-12-24T06:19:59.998Z,0.90
2022-12-24T06:22:26.371Z,0.77
2022-12-24T06:24:52.677Z,0.50
2022-12-24T06:27:19.450Z,0.90
2022-12-24T06:29:46.323Z,1.27
2022-12-24T06:32:12.782Z,0.77
2022-12-24T06:34:39.298Z,0.90
2022-12-24T06:37:05.687Z,1.33
2022-12-24T06:39:32.028Z,0.98
2022-12-24T06:41:58.483Z,1.13
2022-12-24T06:44:24.869Z,1.00
2022-12-24T06:46:51.231Z,1.20
2022-12-24T06:49:17.563Z,1.35
2022-12-24T06:51:43.902Z,2.65
2022-12-24T06:54:10.210Z,1.60
2022-12-24T06:56:36.647Z,1.20
2022-12-24T06:59:05.569Z,1.75
2022-12-24T07:01:32.283Z,1.58
2022-12-24T07:03:58.852Z,1.88
2022-12-24T07:06:26.425Z,1.50
2022-12-24T07:08:52.835Z,1.10
2022-12-24T07:11:19.307Z,1.55
2022-12-24T07:13:46.654Z,1.75
2022-12-24T07:16:13.157Z,1.40
2022-12-24T07:18:39.613Z,1.50
2022-12-24T07:21:07.136Z,2.60
2022-12-24T07:23:33.725Z,1.98
2022-12-24T07:26:04.093Z,1.58
2022-12-24T07:28:30.671Z,2.15
2022-12-24T07:30:57.257Z,1.90
2022-12-24T07:33:24.337Z,1.98
2022-12-24T07:35:57.435Z,2.05
2022-12-24T07:38:23.745Z,1.83
2022-12-24T07:40:50.206Z,1.70
2022-12-24T07:43:16.503Z,2.50
2022-12-24T07:45:43.055Z,1.60
2022-12-24T07:48:09.394Z,1.85
2022-12-24T07:50:36.868Z,1.70
2022-12-24T07:53:03.210Z,2.15
2022-12-24T07:55:29.706Z,2.33
2022-12-24T07:57:56.006Z,2.10
2022-12-24T08:00:22.386Z,3.08
2022-12-24T08:02:48.976Z,2.00
2022-12-24T08:05:15.683Z,2.20
2022-12-24T08:07:41.974Z,3.22
2022-12-24T08:10:08.577Z,1.65
2022-12-24T08:12:34.971Z,2.33
2022-12-24T08:15:01.275Z,3.00
2022-12-24T08:17:32.107Z,2.00
2022-12-24T08:19:58.954Z,1.90
2022-12-24T08:22:25.258Z,1.70
2022-12-24T08:24:51.728Z,1.88
2022-12-24T08:27:18.068Z,1.95
2022-12-24T08:29:44.661Z,2.17
2022-12-24T08:32:11.202Z,1.63
2022-12-24T08:34:37.562Z,1.88
2022-12-24T08:37:03.962Z,1.83
2022-12-24T08:39:30.708Z,1.50
2022-12-24T08:41:57.151Z,1.45
2022-12-24T08:44:23.498Z,1.10
2022-12-24T08:46:49.922Z,1.30
2022-12-24T08:49:16.285Z,1.50
2022-12-24T08:51:42.613Z,1.10
2022-12-24T08:54:09.090Z,1.95
2022-12-24T08:56:35.735Z,1.30
2022-12-24T08:59:02.272Z,1.95
2022-12-24T09:01:28.781Z,1.60
2022-12-24T09:03:55.133Z,2.25
2022-12-24T09:06:21.865Z,2.08
2022-12-24T09:08:48.340Z,2.13
2022-12-24T09:11:16.164Z,1.70
2022-12-24T09:13:43.160Z,1.90
2022-12-24T09:16:09.645Z,1.73
2022-12-24T09:18:36.414Z,2.35
2022-12-24T09:21:04.250Z,1.92
2022-12-24T09:23:31.012Z,1.52
2022-12-24T09:25:57.329Z,1.60
2022-12-24T09:28:23.840Z,2.20
2022-12-24T09:31:00.526Z,1.75
2022-12-24T09:33:27.633Z,1.73
2022-12-24T09:35:54.071Z,1.88
2022-12-24T09:38:20.837Z,1.55
2022-12-24T09:40:47.375Z,1.45
2022-12-24T09:43:15.357Z,1.15
2022-12-24T09:45:45.272Z,1.35
2022-12-24T09:48:17.002Z,1.90
2022-12-24T09:50:43.369Z,1.75
2022-12-24T09:53:30.030Z,1.40
2022-12-24T09:55:58.070Z,1.40
2022-12-24T09:58:30.978Z,1.83
2022-12-24T10:00:57.721Z,2.33
2022-12-24T10:03:24.221Z,1.92
2022-12-24T10:06:01.255Z,1.65
2022-12-24T10:08:48.793Z,1.90
2022-12-24T10:11:50.750Z,1.92
2022-12-24T10:14:17.130Z,1.73
2022-12-24T10:16:58.835Z,1.80
2022-12-24T10:19:25.185Z,1.40
2022-12-24T10:21:54.615Z,1.85
2022-12-24T10:24:42.361Z,1.60
2022-12-24T10:27:14.972Z,1.65
2022-12-24T10:29:46.372Z,1.67
2022-12-24T10:32:17.445Z,1.70
2022-12-24T10:34:45.648Z,1.73
2022-12-24T10:37:22.466Z,2.05
2022-12-24T10:39:48.850Z,1.35
2022-12-24T10:42:15.610Z,1.30
2022-12-24T10:44:42.303Z,2.22
2022-12-24T10:47:09.919Z,2.22
2022-12-24T10:49:45.454Z,1.92
2022-12-24T10:52:13.155Z,1.70
2022-12-24T10:54:59.495Z,1.70
2022-12-24T10:57:26.508Z,2.50
2022-12-24T10:59:54.774Z,1.60
2022-12-24T11:02:29.460Z,1.90
2022-12-24T11:04:56.199Z,1.58
2022-12-24T11:07:23.572Z,1.40
2022-12-24T11:09:58.173Z,1.63
2022-12-24T11:12:32.303Z,1.73
2022-12-24T11:15:04.705Z,1.98
2022-12-24T11:17:31.240Z,1.52
2022-12-24T11:19:58.103Z,1.95
2022-12-24T11:22:26.069Z,2.15
2022-12-24T11:25:01.348Z,1.60
2022-12-24T11:27:41.296Z,1.83
2022-12-24T11:30:17.034Z,1.98
2022-12-24T11:32:50.845Z,2.30
2022-12-24T11:35:18.857Z,1.63
2022-12-24T11:37:45.164Z,1.30
2022-12-24T11:40:22.353Z,2.42
2022-12-24T11:42:53.169Z,2.70
2022-12-24T11:45:19.486Z,2.00
2022-12-24T11:47:46.335Z,2.40
2022-12-24T11:50:29.176Z,2.45
2022-12-24T11:52:59.138Z,1.95
2022-12-24T11:55:34.034Z,2.08
2022-12-24T11:58:12.361Z,2.30
2022-12-24T12:00:40.355Z,2.35
2022-12-24T12:03:09.357Z,2.25
2022-12-24T12:05:36.404Z,3.60
2022-12-24T12:08:15.633Z,2.50
2022-12-24T12:10:43.139Z,2.10
2022-12-24T12:13:15.808Z,1.63
2022-12-24T12:15:49.033Z,1.60
2022-12-24T12:18:16.441Z,2.08
2022-12-24T12:20:45.226Z,1.95
2022-12-24T12:23:11.582Z,2.17
2022-12-24T12:25:44.969Z,1.60
2022-12-24T12:28:22.713Z,1.83
2022-12-24T12:31:18.309Z,2.10
2022-12-24T12:33:48.492Z,2.70
2022-12-24T12:36:18.364Z,1.58
2022-12-24T12:38:44.825Z,1.92
2022-12-24T12:41:26.493Z,1.55
2022-12-24T12:44:01.992Z,1.92
2022-12-24T12:46:43.216Z,1.70
2022-12-24T12:49:15.590Z,1.40
2022-12-24T12:52:00.798Z,1.50
2022-12-24T12:54:46.206Z,1.70
2022-12-24T12:57:16.042Z,1.60
2022-12-24T12:59:57.277Z,0.98
2022-12-24T13:02:40.883Z,1.30
2022-12-24T13:05:29.894Z,1.25
2022-12-24T13:08:08.434Z,1.60
2022-12-24T13:10:53.205Z,1.70
2022-12-24T13:13:42.608Z,2.47
2022-12-24T13:16:20.038Z,1.67
2022-12-24T13:18:49.569Z,1.55
2022-12-24T13:21:18.194Z,2.05
2022-12-24T13:23:44.507Z,2.15
2022-12-24T13:26:12.103Z,2.33
2022-12-24T13:28:38.771Z,2.47
2022-12-24T13:31:19.612Z,2.08
2022-12-24T13:33:47.375Z,1.90
2022-12-24T13:36:17.164Z,2.60
2022-12-24T13:38:49.719Z,1.50
2022-12-24T13:41:40.167Z,2.00
2022-12-24T13:44:07.684Z,2.08
2022-12-24T13:46:49.283Z,2.53
2022-12-24T13:49:36.153Z,1.67
2022-12-24T13:52:05.688Z,2.40
2022-12-24T13:54:32.112Z,2.30
2022-12-24T13:56:59.683Z,2.10
2022-12-24T13:59:36.179Z,2.05
2022-12-24T14:02:04.982Z,2.20
2022-12-24T14:04:34.990Z,1.20
2022-12-24T14:07:03.239Z,1.50
2022-12-24T14:09:31.012Z,2.58
2022-12-24T14:12:03.175Z,1.52
2022-12-24T14:14:32.388Z,1.40
2022-12-24T14:17:02.960Z,1.80
2022-12-24T14:19:37.294Z,1.90
2022-12-24T14:22:14.497Z,1.63
2022-12-24T14:24:46.167Z,1.48
2022-12-24T14:27:19.055Z,1.90
2022-12-24T14:30:06.297Z,1.63
2022-12-24T14:32:36.802Z,1.30
2022-12-24T14:35:08.111Z,1.60
2022-12-24T14:37:35.043Z,1.30
2022-12-24T14:40:01.806Z,1.85
2022-12-24T14:42:34.197Z,2.10
2022-12-24T14:45:12.795Z,1.75
2022-12-24T14:47:48.516Z,1.45
2022-12-24T14:50:33.793Z,1.65
2022-12-24T14:53:10.508Z,1.27
2022-12-24T14:55:41.000Z,2.35
2022-12-24T14:58:19.720Z,1.95
2022-12-24T15:00:46.380Z,1.88
2022-12-24T15:03:14.601Z,2.03
2022-12-24T15:05:41.478Z,1.80
2022-12-24T15:08:15.802Z,2.30
2022-12-24T15:10:46.918Z,1.50
2022-12-24T15:13:36.258Z,2.60
2022-12-24T15:16:04.788Z,2.60
2022-12-24T15:18:32.792Z,3.55
2022-12-24T15:21:04.281Z,1.90
2022-12-24T15:23:36.659Z,2.90
2022-12-24T15:26:21.356Z,2.53
2022-12-24T15:28:48.249Z,1.70
2022-12-24T15:31:16.205Z,1.40
2022-12-24T15:33:46.356Z,1.90
2022-12-24T15:36:13.751Z,1.95
2022-12-24T15:38:41.534Z,2.72
2022-12-24T15:41:19.678Z,2.45
2022-12-24T15:43:47.156Z,2.33
2022-12-24T15:46:24.345Z,3.28
2022-12-24T15:48:51.270Z,2.55
2022-12-24T15:51:29.123Z,2.00
2022-12-24T15:54:01.188Z,1.33
2022-12-24T15:56:35.609Z,1.70
2022-12-24T15:59:19.981Z,1.50
2022-12-24T16:01:47.800Z,2.08
2022-12-24T16:04:15.545Z,2.10
2022-12-24T16:06:52.646Z,2.15
2022-12-24T16:09:37.776Z,2.50
2022-12-24T16:12:04.348Z,2.60
2022-12-24T16:14:32.138Z,2.30
2022-12-24T16:16:58.731Z,2.65
2022-12-24T16:19:26.635Z,2.63
2022-12-24T16:21:59.884Z,3.30
2022-12-24T16:24:28.437Z,2.17
2022-12-24T16:26:55.273Z,2.28
2022-12-24T16:29:22.531Z,2.20
2022-12-24T16:31:52.695Z,2.30
2022-12-24T16:34:20.570Z,2.35
2022-12-24T16:36:46.969Z,3.03
2022-12-24T16:39:23.316Z,3.05
2022-12-24T16:42:11.951Z,3.10
2022-12-24T16:44:38.683Z,2.67
2022-12-24T16:47:06.475Z,2.50
2022-12-24T16:49:36.331Z,2.97
2022-12-24T16:52:02.692Z,2.47
2022-12-24T16:54:30.061Z,1.73
2022-12-24T16:56:56.422Z,2.00
2022-12-24T16:59:23.892Z,2.20
2022-12-24T17:01:50.893Z,2.10
2022-12-24T17:04:18.247Z,1.55
2022-12-24T17:06:45.000Z,1.30
2022-12-24T17:09:12.241Z,1.50
2022-12-24T17:11:38.641Z,2.25
2022-12-24T17:14:08.428Z,1.83
2022-12-24T17:16:37.339Z,2.00
2022-12-24T17:19:04.170Z,3.53
2022-12-24T17:21:30.550Z,3.50
2022-12-24T17:23:56.909Z,3.42
2022-12-24T17:26:23.377Z,2.13
2022-12-24T17:28:52.844Z,2.83
2022-12-24T17:31:19.174Z,3.63
2022-12-24T17:33:45.550Z,5.65
2022-12-24T17:36:12.316Z,4.57
2022-12-24T17:38:38.744Z,7.78
2022-12-24T17:41:06.855Z,7.10
2022-12-24T17:43:33.730Z,7.13
2022-12-24T17:46:00.206Z,7.13
2022-12-24T17:48:26.604Z,5.13
2022-12-24T17:50:53.135Z,4.18
2022-12-24T17:53:19.490Z,3.40
2022-12-24T17:55:46.621Z,3.03
2022-12-24T17:58:14.164Z,3.50
2022-12-24T18:00:41.082Z,3.47
2022-12-24T18:03:07.842Z,3.92
2022-12-24T18:05:35.251Z,3.97
2022-12-24T18:08:01.743Z,4.13
2022-12-24T18:10:28.341Z,3.75
2022-12-24T18:12:54.800Z,4.35
2022-12-24T18:15:21.914Z,3.67
2022-12-24T18:17:52.329Z,3.13
2022-12-24T18:20:18.987Z,3.28
2022-12-24T18:22:45.505Z,3.45
2022-12-24T18:25:11.984Z,3.22
2022-12-24T18:27:38.457Z,3.80
2022-12-24T18:30:06.183Z,2.88
2022-12-24T18:32:32.519Z,3.47
2022-12-24T18:34:59.570Z,2.78
2022-12-24T18:37:25.894Z,2.95
2022-12-24T18:39:52.225Z,3.08
2022-12-24T18:42:18.673Z,3.88
2022-12-24T18:44:45.408Z,2.50
2022-12-24T18:47:11.855Z,2.97
2022-12-24T18:49:38.745Z,3.05
2022-12-24T18:52:05.911Z,4.10
2022-12-24T18:54:32.320Z,4.30
2022-12-24T18:56:58.742Z,3.67
2022-12-24T18:59:25.220Z,3.45
2022-12-24T19:01:51.709Z,3.90
2022-12-24T19:04:18.277Z,3.38
2022-12-24T19:06:50.717Z,3.03
2022-12-24T19:09:19.331Z,3.55
2022-12-24T19:11:45.645Z,3.22
2022-12-24T19:14:13.055Z,2.90
2022-12-24T19:16:39.679Z,3.03
2022-12-24T19:19:07.014Z,4.15
2022-12-24T19:21:33.492Z,3.58
2022-12-24T19:24:00.061Z,2.70
2022-12-24T19:26:26.392Z,2.42
2022-12-24T19:28:53.103Z,2.15
2022-12-24T19:31:21.437Z,3.15
2022-12-24T19:33:49.119Z,2.47
2022-12-24T19:36:18.207Z,2.28
2022-12-24T19:38:44.935Z,2.05
2022-12-24T19:41:12.912Z,2.55
2022-12-24T19:43:41.241Z,3.45
2022-12-24T19:46:08.856Z,1.83
2022-12-24T19:48:35.451Z,1.65
2022-12-24T19:51:06.074Z,1.90
2022-12-24T19:53:32.898Z,1.90
2022-12-24T19:55:59.246Z,1.85
2022-12-24T19:58:26.565Z,2.00
2022-12-24T20:00:53.113Z,2.08
2022-12-24T20:03:19.907Z,2.75
2022-12-24T20:05:46.332Z,3.20
2022-12-24T20:08:12.971Z,2.67
2022-12-24T20:10:40.216Z,2.28
2022-12-24T20:13:06.808Z,1.90
2022-12-24T20:15:37.996Z,1.60
2022-12-24T20:18:04.427Z,2.17
2022-12-24T20:20:30.782Z,2.25
2022-12-24T20:22:57.888Z,2.63
2022-12-24T20:25:24.243Z,2.40
2022-12-24T20:27:50.622Z,1.58
2022-12-24T20:30:17.042Z,2.25
2022-12-24T20:32:43.538Z,2.50
2022-12-24T20:35:09.951Z,2.92
2022-12-24T20:37:45.636Z,5.38
2022-12-24T20:40:12.756Z,3.70
2022-12-24T20:42:39.127Z,4.55
2022-12-24T20:45:05.930Z,3.80
2022-12-24T20:47:32.850Z,3.85
2022-12-24T20:49:59.338Z,3.13
2022-12-24T20:52:25.709Z,2.55
2022-12-24T20:54:52.093Z,2.30
2022-12-24T20:57:23.401Z,2.42
2022-12-24T20:59:52.598Z,2.97
2022-12-24T21:02:19.057Z,2.50
2022-12-24T21:04:45.469Z,2.10
2022-12-24T21:07:14.328Z,2.10
2022-12-24T21:09:41.229Z,2.25
2022-12-24T21:12:29.247Z,1.80
2022-12-24T21:14:55.673Z,1.60
2022-12-24T21:17:22.025Z,1.65
2022-12-24T21:19:48.440Z,2.65
2022-12-24T21:22:14.775Z,2.90
2022-12-24T21:24:41.133Z,3.15
2022-12-24T21:27:07.552Z,2.60
2022-12-24T21:29:33.908Z,2.47
2022-12-24T21:32:00.280Z,2.63
2022-12-24T21:34:26.616Z,2.80
2022-12-24T21:36:52.934Z,2.78
2022-12-24T21:39:19.260Z,2.40
2022-12-24T21:41:46.047Z,2.28
2022-12-24T21:44:12.489Z,2.45
2022-12-24T21:46:38.830Z,1.80
2022-12-24T21:49:23.772Z,1.75
2022-12-24T21:51:50.173Z,1.38
2022-12-24T21:54:31.213Z,1.40
2022-12-24T21:57:20.936Z,0.93
2022-12-24T21:59:49.053Z,0.70
2022-12-24T22:02:16.181Z,0.60
2022-12-24T22:04:43.038Z,0.40
2022-12-24T22:07:42.262Z,0.30
2022-12-24T22:10:28.526Z,0.43
2022-12-24T22:12:55.210Z,0.70
2022-12-24T22:15:21.648Z,1.08
2022-12-24T22:17:47.983Z,0.90
2022-12-24T22:20:14.362Z,1.00
2022-12-24T22:22:40.793Z,0.90
2022-12-24T22:25:07.335Z,1.30
2022-12-24T22:27:33.722Z,1.95
2022-12-24T22:30:00.095Z,1.70
2022-12-24T22:32:26.474Z,1.90
2022-12-24T22:34:53.802Z,2.15
2022-12-24T22:37:20.150Z,2.40
2022-12-24T22:39:46.431Z,1.70
2022-12-24T22:42:12.920Z,1.63
2022-12-24T22:44:39.484Z,1.65
2022-12-24T22:47:05.899Z,1.50
2022-12-24T22:49:32.321Z,1.83
2022-12-24T22:51:58.740Z,2.10
2022-12-24T22:54:25.234Z,1.60
2022-12-24T22:56:51.564Z,1.60
2022-12-24T22:59:17.892Z,1.45
2022-12-24T23:01:45.319Z,1.23
2022-12-24T23:04:12.324Z,1.17
2022-12-24T23:06:39.002Z,1.02
2022-12-24T23:09:06.229Z,1.58
2022-12-24T23:11:32.740Z,1.20
2022-12-24T23:14:17.894Z,1.42
2022-12-24T23:16:44.299Z,1.60
2022-12-24T23:19:10.977Z,1.25
2022-12-24T23:21:38.435Z,1.10
2022-12-24T23:24:05.172Z,1.13
2022-12-24T23:26:31.535Z,0.82
2022-12-24T23:28:57.962Z,1.02
2022-12-24T23:31:25.195Z,0.90
2022-12-24T23:33:51.694Z,1.00
2022-12-24T23:36:18.208Z,1.50
2022-12-24T23:38:44.648Z,1.70
2022-12-24T23:41:11.145Z,1.92
2022-12-24T23:43:37.888Z,1.90
2022-12-24T23:46:04.868Z,1.60
2022-12-24T23:48:31.333Z,1.35
2022-12-24T23:51:08.711Z,1.45
2022-12-24T23:53:35.117Z,1.17
2022-12-24T23:56:01.487Z,0.95
2022-12-24T23:58:27.907Z,1.75
